Terminal Aerodrome Forecast
Issued by NWS Northern Indiana

Home | Current Version | Previous Version | Graphics & Text | Print | Product List | Glossary On
Versions: 1 2 3 4 5 6 7 8 9 10 11 12 13 14 15 16 17 18 19
000
FTUS43 KIWX 191739
TAFFWA
TAF
KFWA 191739Z 1918/2018 15006KT P6SM VCSH SCT015 OVC025
      TEMPO 1918/1920 5SM -SHRA BR BKN015
     FM200100 13003KT P6SM OVC025
     FM200600 VRB02KT 2SM BR BKN004
     FM201400 21006KT P6SM SCT025=

USA.gov is the U.S. government's official web portal to all federal, state and local government web resources and services.